createdAt,value
2022-08-27T00:02:13.127Z,99988.09
2022-08-27T00:04:41.990Z,99991.78
2022-08-27T00:07:11.207Z,99993.19
2022-08-27T00:09:40.140Z,99990.75
2022-08-27T00:12:11.748Z,99987.03
2022-08-27T00:14:40.146Z,99985.31
2022-08-27T00:17:08.871Z,99988.34
2022-08-27T00:19:37.962Z,99985.06
2022-08-27T00:22:07.938Z,99977.31
2022-08-27T00:24:38.394Z,99973.22
2022-08-27T00:27:19.692Z,99977.16
2022-08-27T00:29:49.105Z,99974.72
2022-08-27T00:32:17.735Z,99969.25
2022-08-27T00:34:46.108Z,99965.19
2022-08-27T00:37:14.902Z,99970.63
2022-08-27T00:39:43.135Z,99971.28
2022-08-27T00:42:11.520Z,99970.13
2022-08-27T00:44:40.026Z,99963.03
2022-08-27T00:47:23.987Z,99966.50
2022-08-27T00:50:04.723Z,99966.50
2022-08-27T00:52:41.747Z,99966.94
2022-08-27T00:55:14.315Z,99971.69
2022-08-27T00:57:44.104Z,99973.19
2022-08-27T01:00:18.632Z,99969.97
2022-08-27T01:02:48.463Z,99972.50
2022-08-27T01:05:25.469Z,99973.16
2022-08-27T01:08:03.626Z,99972.59
2022-08-27T01:10:32.593Z,99969.91
2022-08-27T01:13:01.398Z,99970.28
2022-08-27T01:15:30.907Z,99969.78
2022-08-27T01:17:59.814Z,99970.06
2022-08-27T01:20:44.777Z,99977.75
2022-08-27T01:23:40.810Z,99975.59
2022-08-27T01:26:13.213Z,99980.25
2022-08-27T01:28:42.537Z,99980.53
2022-08-27T01:31:13.343Z,99981.78
2022-08-27T01:33:53.078Z,99991.47
2022-08-27T01:36:21.318Z,99984.69
2022-08-27T01:38:49.944Z,99982.84
2022-08-27T01:41:19.091Z,99978.94
2022-08-27T01:43:48.600Z,99988.97
2022-08-27T01:46:24.480Z,99984.69
2022-08-27T01:48:53.177Z,99985.06
2022-08-27T01:51:21.804Z,99992.44
2022-08-27T01:53:51.174Z,99995.13
2022-08-27T01:56:19.941Z,99986.91
2022-08-27T01:58:48.625Z,99991.19
2022-08-27T02:01:19.911Z,99982.03
2022-08-27T02:03:48.476Z,99984.34
2022-08-27T02:06:17.011Z,99982.09
2022-08-27T02:08:45.235Z,99989.22
2022-08-27T02:11:13.460Z,99987.34
2022-08-27T02:13:41.741Z,99988.16
2022-08-27T02:16:10.005Z,99988.97
2022-08-27T02:18:38.601Z,99989.78
2022-08-27T02:21:10.526Z,99989.13
2022-08-27T02:23:39.733Z,99990.13
2022-08-27T02:26:08.353Z,99991.84
2022-08-27T02:28:36.698Z,99989.59
2022-08-27T02:31:05.279Z,99989.53
2022-08-27T02:33:34.921Z,99987.03
2022-08-27T02:36:04.114Z,99989.06
2022-08-27T02:38:34.754Z,99990.00
2022-08-27T02:41:03.321Z,99993.50
2022-08-27T02:43:34.066Z,99991.94
2022-08-27T02:46:04.188Z,99989.28
2022-08-27T02:48:32.459Z,99986.53
2022-08-27T02:51:00.659Z,99988.19
2022-08-27T02:53:28.875Z,99989.81
2022-08-27T02:55:59.859Z,99993.91
2022-08-27T02:58:28.142Z,99988.31
2022-08-27T03:00:57.018Z,99989.28
2022-08-27T03:03:25.691Z,99995.19
2022-08-27T03:05:53.907Z,99999.09
2022-08-27T03:08:23.717Z,99989.38
2022-08-27T03:10:52.130Z,99990.84
2022-08-27T03:13:22.951Z,99990.56
2022-08-27T03:15:51.135Z,99983.88
2022-08-27T03:18:20.088Z,99983.50
2022-08-27T03:20:51.293Z,99980.44
2022-08-27T03:23:22.671Z,99982.53
2022-08-27T03:25:56.762Z,99980.44
2022-08-27T03:28:28.418Z,99985.78
2022-08-27T03:31:04.325Z,99973.88
2022-08-27T03:33:38.074Z,99968.34
2022-08-27T03:36:08.666Z,99974.88
2022-08-27T03:38:37.381Z,99973.00
2022-08-27T03:41:06.446Z,99968.88
2022-08-27T03:43:35.938Z,99965.34
2022-08-27T03:46:04.319Z,99963.66
2022-08-27T03:48:34.146Z,99972.25
2022-08-27T03:51:12.042Z,99965.47
2022-08-27T03:53:42.676Z,99967.75
2022-08-27T03:56:11.413Z,99968.28
2022-08-27T03:58:39.927Z,99971.13
2022-08-27T04:01:09.028Z,99967.81
2022-08-27T04:03:39.569Z,99963.13
2022-08-27T04:06:08.090Z,99968.47
2022-08-27T04:08:36.603Z,99961.06
2022-08-27T04:11:07.971Z,99963.28
2022-08-27T04:13:36.789Z,99952.19
2022-08-27T04:16:06.995Z,99955.22
2022-08-27T04:18:35.326Z,99956.22
2022-08-27T04:21:11.909Z,99956.94
2022-08-27T04:23:41.693Z,99958.34
2022-08-27T04:26:11.218Z,99954.66
2022-08-27T04:28:39.591Z,99953.47
2022-08-27T04:31:11.923Z,99956.50
2022-08-27T04:33:50.875Z,99954.59
2022-08-27T04:36:19.879Z,99956.56
2022-08-27T04:38:48.691Z,99955.09
2022-08-27T04:41:19.992Z,99955.22
2022-08-27T04:43:51.267Z,99961.53
2022-08-27T04:46:40.735Z,99965.16
2022-08-27T04:49:13.676Z,99974.56
2022-08-27T04:51:43.784Z,99976.56
2022-08-27T04:54:12.065Z,99972.94
2022-08-27T04:56:40.505Z,99970.28
2022-08-27T04:59:10.299Z,99974.22
2022-08-27T05:01:40.181Z,99970.44
2022-08-27T05:04:11.000Z,99973.00
2022-08-27T05:06:39.336Z,99962.63
2022-08-27T05:09:07.763Z,99961.31
2022-08-27T05:11:35.957Z,99952.34
2022-08-27T05:14:06.880Z,99957.94
2022-08-27T05:16:38.634Z,99956.81
2022-08-27T05:19:10.614Z,99959.75
2022-08-27T05:21:43.314Z,99962.69
2022-08-27T05:24:11.922Z,99972.22
2022-08-27T05:26:40.431Z,99984.44
2022-08-27T05:29:09.018Z,99990.34
2022-08-27T05:31:38.013Z,100000.69
2022-08-27T05:34:10.037Z,99997.47
2022-08-27T05:36:48.104Z,99999.63
2022-08-27T05:39:17.715Z,99991.75
2022-08-27T05:41:45.980Z,99982.56
2022-08-27T05:47:03.870Z,99970.59
2022-08-27T05:49:32.408Z,99965.81
2022-08-27T05:52:00.616Z,99970.19
2022-08-27T05:54:28.909Z,99980.84
2022-08-27T05:56:57.147Z,99980.91
2022-08-27T05:59:44.111Z,99998.97
2022-08-27T06:02:12.496Z,100010.75
2022-08-27T06:04:41.959Z,100007.41
2022-08-27T06:07:10.995Z,100007.94
2022-08-27T06:09:40.089Z,99996.63
2022-08-27T06:12:09.341Z,99999.13
2022-08-27T06:14:41.060Z,100002.78
2022-08-27T06:17:09.365Z,99995.59
2022-08-27T06:19:37.738Z,100007.22
2022-08-27T06:22:10.436Z,100010.75
2022-08-27T06:24:41.544Z,100026.03
2022-08-27T06:27:17.026Z,100038.97
2022-08-27T06:29:46.050Z,100044.00
2022-08-27T06:32:15.121Z,100066.50
2022-08-27T06:34:43.458Z,100070.72
2022-08-27T06:37:11.909Z,100082.69
2022-08-27T06:39:41.206Z,100091.38
2022-08-27T06:42:13.905Z,100080.94
2022-08-27T06:44:42.353Z,100073.06
2022-08-27T06:47:11.193Z,100061.97
2022-08-27T06:49:41.310Z,100053.72
2022-08-27T06:52:14.682Z,100050.25
2022-08-27T06:54:43.039Z,100057.31
2022-08-27T06:57:13.561Z,100060.72
2022-08-27T06:59:41.918Z,100069.25
2022-08-27T07:02:18.142Z,100070.03
2022-08-27T07:04:46.459Z,100073.59
2022-08-27T07:07:15.240Z,100068.06
2022-08-27T07:10:01.008Z,100078.50
2022-08-27T07:12:33.164Z,100086.84
2022-08-27T07:15:01.496Z,100086.97
2022-08-27T07:17:29.671Z,100091.38
2022-08-27T07:19:57.952Z,100087.63
2022-08-27T07:22:26.262Z,100084.31
2022-08-27T07:24:54.543Z,100077.34
2022-08-27T07:27:23.483Z,100079.72
2022-08-27T07:29:51.714Z,100065.81
2022-08-27T07:32:20.010Z,100067.16
2022-08-27T07:34:48.182Z,100057.31
2022-08-27T07:37:16.430Z,100061.00
2022-08-27T07:39:44.678Z,100054.59
2022-08-27T07:42:31.496Z,100048.66
2022-08-27T07:44:59.763Z,100039.38
2022-08-27T07:47:29.496Z,100038.47
2022-08-27T07:49:59.121Z,100043.38
2022-08-27T07:52:27.849Z,100034.09
2022-08-27T07:54:56.187Z,100043.50
2022-08-27T07:57:24.415Z,100038.81
2022-08-27T07:59:53.306Z,100034.69
2022-08-27T08:02:21.586Z,100039.44
2022-08-27T08:04:49.860Z,100037.19
2022-08-27T08:07:18.358Z,100032.53
2022-08-27T08:09:46.597Z,100035.19
2022-08-27T08:12:15.167Z,100032.50
2022-08-27T08:14:43.686Z,100032.72
2022-08-27T08:17:13.671Z,100045.13
2022-08-27T08:19:50.185Z,100056.19
2022-08-27T08:22:25.617Z,100059.00
2022-08-27T08:24:54.578Z,100068.19
2022-08-27T08:27:23.141Z,100074.00
2022-08-27T08:29:52.247Z,100072.41
2022-08-27T08:32:21.482Z,100085.06
2022-08-27T08:34:50.910Z,100084.81
2022-08-27T08:37:19.139Z,100090.56
2022-08-27T08:39:47.459Z,100086.88
2022-08-27T08:42:50.689Z,100089.22
2022-08-27T08:45:26.289Z,100088.25
2022-08-27T08:48:06.039Z,100090.31
2022-08-27T08:51:17.071Z,100089.47
2022-08-27T08:53:59.882Z,100100.53
2022-08-27T08:56:43.470Z,100113.50
2022-08-27T08:59:19.149Z,100115.38
2022-08-27T09:01:49.080Z,100128.81
2022-08-27T09:04:17.715Z,100134.59
2022-08-27T09:07:00.704Z,100129.84
2022-08-27T09:09:35.413Z,100134.16
2022-08-27T09:12:19.299Z,100149.09
2022-08-27T09:14:54.664Z,100145.34
2022-08-27T09:17:23.461Z,100149.28
2022-08-27T09:19:52.471Z,100159.72
2022-08-27T09:22:24.659Z,100171.91
2022-08-27T09:25:26.406Z,100182.84
2022-08-27T09:27:58.267Z,100204.97
2022-08-27T09:30:31.175Z,100218.16
2022-08-27T09:33:04.362Z,100242.34
2022-08-27T09:35:44.758Z,100252.28
2022-08-27T09:38:31.803Z,100244.38
2022-08-27T09:41:06.038Z,100241.09
2022-08-27T09:43:36.894Z,100245.81
2022-08-27T09:46:22.368Z,100250.75
2022-08-27T09:48:53.631Z,100262.41
2022-08-27T09:51:27.304Z,100268.09
2022-08-27T09:54:02.161Z,100288.72
2022-08-27T09:56:34.026Z,100302.66
2022-08-27T09:59:05.059Z,100319.19
2022-08-27T10:01:35.980Z,100342.91
2022-08-27T10:04:14.070Z,100365.66
2022-08-27T10:06:51.829Z,100390.50
2022-08-27T10:09:34.463Z,100412.28
2022-08-27T10:12:20.127Z,100399.78
2022-08-27T10:14:55.586Z,100405.25
2022-08-27T10:17:33.361Z,100360.75
2022-08-27T10:20:30.811Z,100308.53
2022-08-27T10:23:26.100Z,100299.88
2022-08-27T10:26:31.958Z,100304.56
2022-08-27T10:29:13.484Z,100297.44
2022-08-27T10:32:00.634Z,100292.13
2022-08-27T10:35:17.078Z,100289.28
2022-08-27T10:37:48.378Z,100294.59
2022-08-27T10:40:28.086Z,100279.13
2022-08-27T10:43:25.492Z,100262.81
2022-08-27T10:46:26.861Z,100265.88
2022-08-27T10:49:21.318Z,100246.75
2022-08-27T10:52:15.045Z,100234.94
2022-08-27T10:54:59.808Z,100213.31
2022-08-27T10:57:54.297Z,100211.69
2022-08-27T11:00:29.268Z,100221.81
2022-08-27T11:03:07.694Z,100229.81
2022-08-27T11:05:50.079Z,100242.13
2022-08-27T11:08:39.195Z,100251.34
2022-08-27T11:11:57.155Z,100246.63
2022-08-27T11:14:06.573Z,100243.09
2022-08-27T11:16:45.866Z,100245.16
2022-08-27T11:19:38.972Z,100234.41
2022-08-27T11:22:24.149Z,100238.72
2022-08-27T11:24:54.864Z,100263.28
2022-08-27T11:27:28.378Z,100284.63
2022-08-27T11:30:00.678Z,100299.09
2022-08-27T11:33:15.049Z,100310.22
2022-08-27T11:36:01.921Z,100302.22
2022-08-27T11:38:45.789Z,100305.41
2022-08-27T11:41:42.325Z,100295.00
2022-08-27T11:44:18.258Z,100287.44
2022-08-27T11:46:55.095Z,100291.47
2022-08-27T11:49:29.565Z,100277.94
2022-08-27T11:52:04.956Z,100284.13
2022-08-27T11:54:49.086Z,100283.94
2022-08-27T11:57:37.730Z,100269.38
2022-08-27T12:00:27.684Z,100256.69
2022-08-27T12:03:03.086Z,100239.97
2022-08-27T12:05:42.670Z,100231.13
2022-08-27T12:08:31.646Z,100227.66
2022-08-27T12:11:17.574Z,100224.41
2022-08-27T12:14:12.413Z,100217.91
2022-08-27T12:16:59.162Z,100216.81
2022-08-27T12:19:50.990Z,100211.34
2022-08-27T12:22:58.351Z,100210.59
2022-08-27T12:25:27.363Z,100208.66
2022-08-27T12:27:59.199Z,100211.34
2022-08-27T12:30:33.893Z,100216.66
2022-08-27T12:33:27.950Z,100218.31
2022-08-27T12:35:58.980Z,100215.66
2022-08-27T12:38:39.971Z,100219.53
2022-08-27T12:41:13.515Z,100220.00
2022-08-27T12:43:44.000Z,100211.91
2022-08-27T12:46:19.018Z,100226.84
2022-08-27T12:48:57.067Z,100223.78
2022-08-27T12:51:26.914Z,100221.41
2022-08-27T12:54:00.805Z,100227.97
2022-08-27T12:56:57.511Z,100215.34
2022-08-27T12:59:39.374Z,100216.41
2022-08-27T13:02:41.504Z,100210.47
2022-08-27T13:05:11.991Z,100214.00
2022-08-27T13:07:43.349Z,100223.25
2022-08-27T13:10:29.143Z,100220.25
2022-08-27T13:13:17.701Z,100217.38
2022-08-27T13:15:52.873Z,100207.56
2022-08-27T13:18:21.907Z,100203.69
2022-08-27T13:21:00.186Z,100196.09
2022-08-27T13:23:28.561Z,100184.19
2022-08-27T13:26:10.463Z,100178.47
2022-08-27T13:28:43.061Z,100173.56
2022-08-27T13:31:14.311Z,100172.53
2022-08-27T13:33:44.078Z,100165.78
2022-08-27T13:36:12.422Z,100157.72
2022-08-27T13:38:49.890Z,100153.53
2022-08-27T13:41:24.293Z,100145.41
2022-08-27T13:43:57.079Z,100136.34
2022-08-27T13:46:31.208Z,100137.09
2022-08-27T13:49:02.203Z,100142.19
2022-08-27T13:51:33.906Z,100138.56
2022-08-27T13:54:18.400Z,100138.63
2022-08-27T13:56:49.702Z,100129.38
2022-08-27T13:59:20.732Z,100125.25
2022-08-27T14:02:24.354Z,100107.53
2022-08-27T14:05:05.973Z,100111.47
2022-08-27T14:07:49.705Z,100110.91
2022-08-27T14:10:36.772Z,100116.00
2022-08-27T14:13:19.197Z,100107.75
2022-08-27T14:15:54.081Z,100107.78
2022-08-27T14:18:37.164Z,100102.97
2022-08-27T14:21:13.624Z,100099.09
2022-08-27T14:23:41.867Z,100106.13
2022-08-27T14:26:12.979Z,100102.44
2022-08-27T14:28:42.671Z,100101.03
2022-08-27T14:31:11.818Z,100106.41
2022-08-27T14:33:40.531Z,100097.31
2022-08-27T14:36:09.833Z,100099.78
2022-08-27T14:38:42.093Z,100101.84
2022-08-27T14:41:10.520Z,100105.22
2022-08-27T14:43:38.785Z,100103.09
2022-08-27T14:46:12.029Z,100107.09
2022-08-27T14:48:43.436Z,100118.75
2022-08-27T14:51:31.463Z,100116.38
2022-08-27T14:53:59.749Z,100122.09
2022-08-27T14:56:27.995Z,100122.09
2022-08-27T14:58:56.576Z,100126.75
2022-08-27T15:01:26.336Z,100131.31
2022-08-27T15:03:55.723Z,100128.63
2022-08-27T15:06:25.332Z,100127.28
2022-08-27T15:08:54.861Z,100142.31
2022-08-27T15:11:29.590Z,100142.84
2022-08-27T15:13:59.042Z,100136.31
2022-08-27T15:16:30.753Z,100130.31
2022-08-27T15:19:01.056Z,100133.16
2022-08-27T15:21:30.752Z,100132.53
2022-08-27T15:24:01.949Z,100129.13
2022-08-27T15:26:30.930Z,100123.34
2022-08-27T15:29:02.823Z,100120.00
2022-08-27T15:31:34.261Z,100114.91
2022-08-27T15:34:02.771Z,100116.09
2022-08-27T15:36:30.984Z,100118.09
2022-08-27T15:38:59.264Z,100114.50
2022-08-27T15:41:29.337Z,100110.75
2022-08-27T15:43:58.250Z,100108.88
2022-08-27T15:46:26.671Z,100096.41
2022-08-27T15:48:55.071Z,100098.09
2022-08-27T15:51:28.926Z,100108.47
2022-08-27T15:53:57.506Z,100091.06
2022-08-27T15:56:26.573Z,100092.00
2022-08-27T15:58:55.161Z,100096.97
2022-08-27T16:01:33.178Z,100089.56
2022-08-27T16:04:02.879Z,100085.25
2022-08-27T16:06:31.254Z,100077.00
2022-08-27T16:08:59.434Z,100088.28
2022-08-27T16:11:27.699Z,100084.59
2022-08-27T16:13:55.946Z,100083.75
2022-08-27T16:16:28.384Z,100084.19
2022-08-27T16:18:57.482Z,100091.31
2022-08-27T16:21:25.747Z,100095.31
2022-08-27T16:23:53.948Z,100091.47
2022-08-27T16:26:22.449Z,100090.66
2022-08-27T16:28:50.666Z,100094.81
2022-08-27T16:31:19.176Z,100090.03
2022-08-27T16:33:47.428Z,100094.81
2022-08-27T16:36:15.739Z,100100.88
2022-08-27T16:38:43.870Z,100111.91
2022-08-27T16:41:14.110Z,100107.09
2022-08-27T16:43:43.298Z,100105.41
2022-08-27T16:46:11.615Z,100113.56
2022-08-27T16:49:01.285Z,100111.16
2022-08-27T16:51:35.106Z,100106.06
2022-08-27T16:54:05.316Z,100110.88
2022-08-27T16:56:37.039Z,100122.59
2022-08-27T16:59:06.731Z,100126.75
2022-08-27T17:01:35.502Z,100131.50
2022-08-27T17:04:09.861Z,100131.66
2022-08-27T17:06:40.043Z,100128.00
2022-08-27T17:09:08.750Z,100137.97
2022-08-27T17:11:41.680Z,100147.84
2022-08-27T17:14:12.124Z,100154.03
2022-08-27T17:16:43.427Z,100155.16
2022-08-27T17:19:16.819Z,100155.00
2022-08-27T17:21:45.808Z,100156.88
2022-08-27T17:24:14.426Z,100155.31
2022-08-27T17:26:42.726Z,100161.72
2022-08-27T17:29:11.057Z,100155.03
2022-08-27T17:31:41.497Z,100155.09
2022-08-27T17:34:16.566Z,100161.91
2022-08-27T17:36:46.172Z,100166.06
2022-08-27T17:39:15.493Z,100161.13
2022-08-27T17:41:49.519Z,100170.78
2022-08-27T17:44:27.252Z,100175.09
2022-08-27T17:46:57.849Z,100177.59
2022-08-27T17:49:26.844Z,100185.63
2022-08-27T17:52:00.346Z,100192.03
2022-08-27T17:54:34.327Z,100185.31
2022-08-27T17:57:05.304Z,100185.34
2022-08-27T17:59:33.485Z,100182.91
2022-08-27T18:02:02.513Z,100187.25
2022-08-27T18:04:31.171Z,100184.59
2022-08-27T18:06:59.380Z,100185.22
2022-08-27T18:09:27.594Z,100188.47
2022-08-27T18:11:56.502Z,100188.50
2022-08-27T18:14:24.858Z,100189.31
2022-08-27T18:16:53.061Z,100181.78
2022-08-27T18:19:21.287Z,100188.75
2022-08-27T18:21:50.022Z,100196.72
2022-08-27T18:24:18.341Z,100201.84
2022-08-27T18:26:47.422Z,100201.63
2022-08-27T18:29:16.188Z,100196.94
2022-08-27T18:31:44.690Z,100202.88
2022-08-27T18:34:14.607Z,100204.06
2022-08-27T18:36:45.816Z,100200.63
2022-08-27T18:39:14.107Z,100204.09
2022-08-27T18:41:42.632Z,100206.28
2022-08-27T18:44:17.503Z,100206.09
2022-08-27T18:46:47.868Z,100203.00
2022-08-27T18:49:16.223Z,100201.16
2022-08-27T18:51:48.219Z,100199.13
2022-08-27T18:54:19.215Z,100200.31
2022-08-27T18:56:47.379Z,100206.44
2022-08-27T18:59:16.199Z,100212.13
2022-08-27T19:01:45.488Z,100219.69
2022-08-27T19:04:13.866Z,100232.53
2022-08-27T19:06:42.049Z,100233.56
2022-08-27T19:09:10.239Z,100233.16
2022-08-27T19:11:38.437Z,100234.94
2022-08-27T19:14:06.759Z,100234.53
2022-08-27T19:16:43.816Z,100232.28
2022-08-27T19:19:14.523Z,100233.50
2022-08-27T19:21:44.370Z,100240.81
2022-08-27T19:24:14.105Z,100232.44
2022-08-27T19:26:46.244Z,100235.28
2022-08-27T19:29:14.678Z,100232.84
2022-08-27T19:32:01.260Z,100244.66
2022-08-27T19:34:29.468Z,100254.88
2022-08-27T19:37:00.092Z,100250.78
2022-08-27T19:39:28.589Z,100260.16
2022-08-27T19:41:56.805Z,100253.63
2022-08-27T19:44:25.147Z,100254.28
2022-08-27T19:46:57.355Z,100260.03
2022-08-27T19:49:25.762Z,100255.72
2022-08-27T19:51:54.062Z,100269.22
2022-08-27T19:54:22.367Z,100254.72
2022-08-27T19:56:51.241Z,100256.38
2022-08-27T19:59:23.323Z,100255.16
2022-08-27T20:01:52.822Z,100250.03
2022-08-27T20:04:21.778Z,100252.69
2022-08-27T20:06:50.084Z,100253.91
2022-08-27T20:09:23.147Z,100259.38
2022-08-27T20:11:51.745Z,100258.75
2022-08-27T20:14:20.416Z,100263.03
2022-08-27T20:16:48.920Z,100259.38
2022-08-27T20:19:18.356Z,100261.22
2022-08-27T20:21:46.576Z,100258.16
2022-08-27T20:24:14.891Z,100256.69
2022-08-27T20:26:43.186Z,100260.38
2022-08-27T20:29:11.778Z,100260.13
2022-08-27T20:31:43.377Z,100257.69
2022-08-27T20:34:11.622Z,100261.88
2022-08-27T20:36:40.086Z,100260.44
2022-08-27T20:39:08.267Z,100262.09
2022-08-27T20:41:36.612Z,100263.72
2022-08-27T20:44:04.977Z,100259.22
2022-08-27T20:46:34.463Z,100265.97
2022-08-27T20:49:03.359Z,100261.28
2022-08-27T20:51:31.536Z,100264.09
2022-08-27T20:54:22.331Z,100263.94
2022-08-27T20:56:52.315Z,100262.72
2022-08-27T20:59:39.937Z,100267.66
2022-08-27T21:02:13.504Z,100266.81
2022-08-27T21:04:48.383Z,100267.47
2022-08-27T21:07:18.631Z,100271.75
2022-08-27T21:09:55.934Z,100269.47
2022-08-27T21:12:29.636Z,100272.69
2022-08-27T21:14:58.527Z,100282.25
2022-08-27T21:17:28.728Z,100284.91
2022-08-27T21:19:57.282Z,100290.59
2022-08-27T21:22:26.717Z,100290.22
2022-08-27T21:24:55.971Z,100293.50
2022-08-27T21:27:24.280Z,100285.78
2022-08-27T21:29:52.724Z,100291.91
2022-08-27T21:32:21.372Z,100292.69
2022-08-27T21:34:49.903Z,100296.72
2022-08-27T21:37:18.845Z,100289.97
2022-08-27T21:39:47.264Z,100294.47
2022-08-27T21:42:18.153Z,100300.22
2022-08-27T21:44:46.386Z,100297.13
2022-08-27T21:47:14.889Z,100291.81
2022-08-27T21:49:43.098Z,100294.72
2022-08-27T21:52:11.730Z,100297.75
2022-08-27T21:54:43.079Z,100300.81
2022-08-27T21:57:12.551Z,100300.41
2022-08-27T21:59:48.532Z,100305.88
2022-08-27T22:02:38.623Z,100301.63
2022-08-27T22:05:08.621Z,100299.97
2022-08-27T22:07:36.882Z,100303.44
2022-08-27T22:10:06.651Z,100312.16
2022-08-27T22:12:34.876Z,100313.81
2022-08-27T22:15:03.857Z,100297.88
2022-08-27T22:17:32.153Z,100309.25
2022-08-27T22:20:00.475Z,100308.47
2022-08-27T22:22:30.474Z,100304.19
2022-08-27T22:24:59.404Z,100309.19
2022-08-27T22:27:27.999Z,100300.41
2022-08-27T22:29:58.590Z,100304.50
2022-08-27T22:32:26.815Z,100299.38
2022-08-27T22:34:54.988Z,100307.97
2022-08-27T22:37:26.286Z,100305.72
2022-08-27T22:39:55.054Z,100308.97
2022-08-27T22:42:23.772Z,100305.72
2022-08-27T22:44:57.293Z,100310.59
2022-08-27T22:47:25.454Z,100306.47
2022-08-27T22:49:53.698Z,100303.00
2022-08-27T22:52:29.223Z,100300.97
2022-08-27T22:54:57.360Z,100302.44
2022-08-27T22:57:25.752Z,100300.59
2022-08-27T22:59:53.953Z,100300.16
2022-08-27T23:02:22.293Z,100291.38
2022-08-27T23:04:55.327Z,100295.66
2022-08-27T23:07:24.976Z,100292.59
2022-08-27T23:09:53.206Z,100292.78
2022-08-27T23:12:22.736Z,100289.31
2022-08-27T23:14:50.897Z,100281.53
2022-08-27T23:17:19.396Z,100281.16
2022-08-27T23:19:48.026Z,100280.75
2022-08-27T23:22:16.582Z,100279.50
2022-08-27T23:25:14.233Z,100282.38
2022-08-27T23:27:42.563Z,100277.06
2022-08-27T23:30:13.124Z,100278.06
2022-08-27T23:32:46.436Z,100278.50
2022-08-27T23:35:18.667Z,100276.41
2022-08-27T23:37:46.900Z,100287.19
2022-08-27T23:40:15.551Z,100289.84
2022-08-27T23:42:44.676Z,100298.16
2022-08-27T23:45:18.284Z,100291.56
2022-08-27T23:47:46.715Z,100293.13
2022-08-27T23:50:15.341Z,100289.41
2022-08-27T23:52:43.977Z,100287.13
2022-08-27T23:55:12.678Z,100289.41
2022-08-27T23:57:41.156Z,100294.34
